createdAt,value
2022-08-11T00:01:27.876Z,102009.47
2022-08-11T00:04:00.647Z,102000.09
2022-08-11T00:06:33.453Z,101997.16
2022-08-11T00:09:02.030Z,102001.84
2022-08-11T00:11:34.985Z,102000.19
2022-08-11T00:14:03.848Z,101988.25
2022-08-11T00:16:32.067Z,101994.63
2022-08-11T00:19:00.298Z,101996.56
2022-08-11T00:22:02.747Z,101989.59
2022-08-11T00:24:16.400Z,101988.28
2022-08-11T00:26:48.706Z,101989.56
2022-08-11T00:29:23.332Z,101990.19
2022-08-11T00:31:55.302Z,101981.41
2022-08-11T00:34:26.449Z,101979.50
2022-08-11T00:37:00.448Z,101979.97
2022-08-11T00:39:29.294Z,101981.03
2022-08-11T00:42:17.826Z,101974.09
2022-08-11T00:45:18.051Z,101982.72
2022-08-11T00:48:01.301Z,101986.09
2022-08-11T00:50:56.575Z,101983.69
2022-08-11T00:53:46.929Z,101982.84
2022-08-11T00:56:34.578Z,101979.50
2022-08-11T00:59:36.039Z,101975.06
2022-08-11T01:02:17.260Z,101984.66
2022-08-11T01:05:05.073Z,101982.72
2022-08-11T01:08:02.224Z,101981.03
2022-08-11T01:10:32.739Z,101987.19
2022-08-11T01:13:24.137Z,101997.00
2022-08-11T01:16:28.534Z,101982.59
2022-08-11T01:19:16.666Z,101989.06
2022-08-11T01:22:13.964Z,101986.28
2022-08-11T01:25:02.082Z,101985.47
2022-08-11T01:27:49.598Z,101985.19
2022-08-11T01:30:43.737Z,101989.38
2022-08-11T01:33:28.794Z,101991.91
2022-08-11T01:36:20.833Z,101991.06
2022-08-11T01:39:22.024Z,101985.28
2022-08-11T01:42:37.775Z,101987.69
2022-08-11T01:45:49.987Z,101987.78
2022-08-11T01:48:31.214Z,101981.28
2022-08-11T01:51:03.816Z,101987.00
2022-08-11T01:53:52.585Z,101980.28
2022-08-11T01:56:28.145Z,101984.59
2022-08-11T01:59:25.098Z,101979.44
2022-08-11T02:02:21.267Z,101982.94
2022-08-11T02:05:07.059Z,101989.91
2022-08-11T02:07:49.829Z,101988.66
2022-08-11T02:10:50.821Z,101985.66
2022-08-11T02:13:42.134Z,101983.88
2022-08-11T02:16:47.094Z,101979.88
2022-08-11T02:19:35.031Z,101984.09
2022-08-11T02:22:25.770Z,101991.91
2022-08-11T02:25:04.421Z,101985.81
2022-08-11T02:28:17.201Z,101991.59
2022-08-11T02:32:24.508Z,101991.59
2022-08-11T02:34:21.897Z,101984.97
2022-08-11T02:37:32.884Z,101988.13
2022-08-11T02:39:59.513Z,101989.16
2022-08-11T02:42:44.675Z,101992.88
2022-08-11T02:45:37.602Z,101997.91
2022-08-11T02:48:34.314Z,101995.38
2022-08-11T02:51:32.250Z,101997.75
2022-08-11T02:54:22.729Z,101993.00
2022-08-11T02:56:57.201Z,101992.56
2022-08-11T02:59:51.344Z,102002.91
2022-08-11T03:02:41.208Z,102004.94
2022-08-11T03:05:11.961Z,102002.59
2022-08-11T03:07:52.198Z,102002.94
2022-08-11T03:11:07.819Z,102005.94
2022-08-11T03:14:00.189Z,102003.50
2022-08-11T03:16:48.377Z,101998.38
2022-08-11T03:19:41.488Z,102003.53
2022-08-11T03:22:16.721Z,102006.41
2022-08-11T03:24:46.545Z,102003.47
2022-08-11T03:27:46.959Z,102007.44
2022-08-11T03:30:17.992Z,102005.88
2022-08-11T03:33:21.976Z,102003.66
2022-08-11T03:36:28.338Z,102002.31
2022-08-11T03:39:04.240Z,101991.88
2022-08-11T03:42:04.418Z,101998.81
2022-08-11T03:44:47.212Z,101991.88
2022-08-11T03:47:55.953Z,102001.59
2022-08-11T03:50:28.969Z,102000.00
2022-08-11T03:53:13.902Z,101994.41
2022-08-11T03:56:13.162Z,101988.09
2022-08-11T03:59:12.351Z,101994.63
2022-08-11T04:02:04.551Z,102001.59
2022-08-11T04:04:35.567Z,102003.34
2022-08-11T04:07:20.115Z,102005.03
2022-08-11T04:09:46.908Z,102004.84
2022-08-11T04:12:36.687Z,102009.66
2022-08-11T04:15:49.564Z,102007.13
2022-08-11T04:19:00.920Z,102009.56
2022-08-11T04:21:45.843Z,102008.19
2022-08-11T04:24:37.120Z,102005.56
2022-08-11T04:27:19.239Z,102002.41
2022-08-11T04:30:05.454Z,102006.31
2022-08-11T04:32:57.259Z,101996.06
2022-08-11T04:35:50.951Z,102005.53
2022-08-11T04:38:46.441Z,102003.03
2022-08-11T04:42:09.242Z,102010.59
2022-08-11T04:45:00.635Z,101997.22
2022-08-11T04:48:07.066Z,101995.47
2022-08-11T04:51:20.420Z,101990.72
2022-08-11T04:54:05.678Z,101997.34
2022-08-11T04:56:53.642Z,101984.78
2022-08-11T05:00:30.071Z,101992.56
2022-08-11T05:03:41.055Z,101990.97
2022-08-11T05:06:35.473Z,101992.34
2022-08-11T05:09:10.422Z,101995.59
2022-08-11T05:11:57.686Z,101993.78
2022-08-11T05:14:53.171Z,101999.78
2022-08-11T05:18:19.256Z,101995.63
2022-08-11T05:21:14.558Z,102001.19
2022-08-11T05:24:09.808Z,102004.22
2022-08-11T05:27:04.431Z,102006.06
2022-08-11T05:30:03.439Z,102008.06
2022-08-11T05:33:00.952Z,102000.56
2022-08-11T05:36:02.414Z,102005.59
2022-08-11T05:38:47.080Z,102002.97
2022-08-11T05:41:33.364Z,102002.78
2022-08-11T05:44:22.229Z,102012.47
2022-08-11T05:47:08.447Z,102004.34
2022-08-11T05:49:55.532Z,102007.88
2022-08-11T05:52:47.009Z,102010.53
2022-08-11T05:55:34.492Z,102012.00
2022-08-11T05:58:07.191Z,102005.97
2022-08-11T06:00:45.846Z,102011.25
2022-08-11T06:03:25.431Z,102007.66
2022-08-11T06:05:52.475Z,102003.94
2022-08-11T06:08:29.812Z,102009.81
2022-08-11T06:11:02.709Z,102016.53
2022-08-11T06:13:30.252Z,102019.28
2022-08-11T06:15:58.834Z,102026.00
2022-08-11T06:18:27.830Z,102028.63
2022-08-11T06:20:58.000Z,102020.13
2022-08-11T06:23:32.037Z,102017.13
2022-08-11T06:26:00.233Z,102022.78
2022-08-11T06:28:34.904Z,102012.00
2022-08-11T06:31:11.801Z,102016.06
2022-08-11T06:33:50.988Z,102022.44
2022-08-11T06:36:43.767Z,102020.72
2022-08-11T06:39:20.343Z,102018.31
2022-08-11T06:41:53.425Z,102020.97
2022-08-11T06:44:38.381Z,102016.00
2022-08-11T06:47:11.001Z,102021.13
2022-08-11T06:50:01.339Z,102022.41
2022-08-11T06:52:35.330Z,102015.41
2022-08-11T06:55:55.444Z,102018.75
2022-08-11T06:58:41.805Z,102019.09
2022-08-11T07:01:13.376Z,102014.94
2022-08-11T07:03:52.819Z,102013.69
2022-08-11T07:06:50.366Z,102025.34
2022-08-11T07:09:45.221Z,102021.56
2022-08-11T07:12:39.506Z,102024.41
2022-08-11T07:16:13.016Z,102023.63
2022-08-11T07:18:45.021Z,102020.47
2022-08-11T07:22:02.565Z,102020.25
2022-08-11T07:25:14.081Z,102020.78
2022-08-11T07:28:06.415Z,102016.38
2022-08-11T07:30:38.610Z,102021.97
2022-08-11T07:33:06.520Z,102025.19
2022-08-11T07:35:38.369Z,102022.16
2022-08-11T07:38:20.659Z,102019.53
2022-08-11T07:40:49.888Z,102018.13
2022-08-11T07:43:16.812Z,102015.25
2022-08-11T07:46:04.117Z,102011.03
2022-08-11T07:48:52.508Z,102009.00
2022-08-11T07:51:40.737Z,102003.31
2022-08-11T07:54:16.455Z,102005.97
2022-08-11T07:56:55.267Z,102013.13
2022-08-11T08:00:03.432Z,102015.34
2022-08-11T08:02:58.939Z,102011.16
2022-08-11T08:05:44.461Z,102015.50
2022-08-11T08:08:30.219Z,102006.84
2022-08-11T08:11:15.898Z,102014.09
2022-08-11T08:14:02.099Z,102018.31
2022-08-11T08:16:49.359Z,102014.13
2022-08-11T08:19:19.019Z,102006.03
2022-08-11T08:21:47.174Z,102005.75
2022-08-11T08:24:15.226Z,102010.94
2022-08-11T08:26:59.136Z,102009.66
2022-08-11T08:29:46.653Z,102008.63
2022-08-11T08:32:16.288Z,102007.53
2022-08-11T08:34:44.762Z,102004.41
2022-08-11T08:37:15.765Z,102007.53
2022-08-11T08:39:59.190Z,102006.44
2022-08-11T08:42:31.941Z,102011.00
2022-08-11T08:45:05.044Z,101998.53
2022-08-11T08:47:43.405Z,102000.56
2022-08-11T08:50:19.326Z,101991.59
2022-08-11T08:53:00.816Z,101996.88
2022-08-11T08:55:30.282Z,102000.34
2022-08-11T08:58:03.365Z,101998.50
2022-08-11T09:00:41.259Z,101995.69
2022-08-11T09:03:36.444Z,101997.63
2022-08-11T09:05:56.207Z,101998.63
2022-08-11T09:08:24.270Z,101991.91
2022-08-11T09:11:13.838Z,101998.28
2022-08-11T09:13:44.441Z,101999.50
2022-08-11T09:16:12.113Z,101991.75
2022-08-11T09:18:44.525Z,101993.63
2022-08-11T09:21:14.792Z,101998.16
2022-08-11T09:24:26.107Z,101994.00
2022-08-11T09:27:02.010Z,101991.53
2022-08-11T09:29:31.225Z,101997.13
2022-08-11T09:31:59.529Z,102001.41
2022-08-11T09:34:27.049Z,101997.13
2022-08-11T09:37:13.460Z,101992.00
2022-08-11T09:40:15.233Z,101989.97
2022-08-11T09:43:00.802Z,101995.13
2022-08-11T09:45:27.798Z,101989.06
2022-08-11T09:48:07.877Z,101982.38
2022-08-11T09:50:38.218Z,101981.69
2022-08-11T09:53:37.402Z,101979.22
2022-08-11T09:55:54.085Z,101983.34
2022-08-11T09:58:41.867Z,101977.63
2022-08-11T10:01:27.000Z,101973.00
2022-08-11T10:04:01.103Z,101979.59
2022-08-11T10:06:54.138Z,101975.44
2022-08-11T10:09:25.021Z,101977.25
2022-08-11T10:11:58.882Z,101972.59
2022-08-11T10:14:48.673Z,101971.69
2022-08-11T10:17:18.740Z,101963.75
2022-08-11T10:20:04.216Z,101963.63
2022-08-11T10:22:52.378Z,101964.75
2022-08-11T10:25:38.655Z,101957.25
2022-08-11T10:28:28.238Z,101960.75
2022-08-11T10:31:14.297Z,101963.38
2022-08-11T10:34:00.530Z,101965.81
2022-08-11T10:36:46.955Z,101960.16
2022-08-11T10:39:17.163Z,101962.59
2022-08-11T10:42:08.681Z,101966.41
2022-08-11T10:44:40.153Z,101958.94
2022-08-11T10:47:29.252Z,101967.41
2022-08-11T10:50:14.921Z,101966.66
2022-08-11T10:53:01.678Z,101957.72
2022-08-11T10:55:47.587Z,101948.53
2022-08-11T10:58:33.794Z,101954.66
2022-08-11T11:01:02.173Z,101952.91
2022-08-11T11:03:31.267Z,101948.59
2022-08-11T11:06:29.322Z,101942.09
2022-08-11T11:09:05.326Z,101946.59
2022-08-11T11:11:56.149Z,101938.75
2022-08-11T11:14:50.684Z,101936.59
2022-08-11T11:18:01.760Z,101937.31
2022-08-11T11:20:47.962Z,101939.91
2022-08-11T11:23:21.934Z,101933.00
2022-08-11T11:26:27.012Z,101933.75
2022-08-11T11:28:57.539Z,101929.00
2022-08-11T11:31:41.738Z,101928.38
2022-08-11T11:34:21.785Z,101925.19
2022-08-11T11:36:56.802Z,101920.13
2022-08-11T11:39:26.173Z,101924.63
2022-08-11T11:41:55.590Z,101926.56
2022-08-11T11:44:23.861Z,101927.31
2022-08-11T11:46:52.322Z,101923.69
2022-08-11T11:51:55.629Z,101921.31
2022-08-11T11:54:26.521Z,101919.44
2022-08-11T11:56:54.716Z,101925.81
2022-08-11T11:59:43.054Z,101917.94
2022-08-11T12:02:12.915Z,101911.69
2022-08-11T12:04:43.004Z,101909.41
2022-08-11T12:07:29.300Z,101908.19
2022-08-11T12:09:58.488Z,101906.84
2022-08-11T12:12:45.017Z,101906.91
2022-08-11T12:15:12.041Z,101906.47
2022-08-11T12:17:39.210Z,101905.44
2022-08-11T12:20:31.522Z,101902.13
2022-08-11T12:23:15.329Z,101899.69
2022-08-11T12:26:26.387Z,101889.78
2022-08-11T12:28:50.478Z,101898.81
2022-08-11T12:31:19.002Z,101885.97
2022-08-11T12:33:47.265Z,101886.47
2022-08-11T12:36:16.285Z,101879.81
2022-08-11T12:38:51.227Z,101889.13
2022-08-11T12:41:39.663Z,101884.13
2022-08-11T12:44:28.385Z,101881.03
2022-08-11T12:46:59.807Z,101885.16
2022-08-11T12:49:49.525Z,101881.16
2022-08-11T12:52:24.703Z,101880.84
2022-08-11T12:54:59.033Z,101873.97
2022-08-11T12:57:55.384Z,101880.81
2022-08-11T13:00:41.963Z,101871.97
2022-08-11T13:03:29.115Z,101876.31
2022-08-11T13:05:58.481Z,101880.81
2022-08-11T13:08:27.882Z,101877.97
2022-08-11T13:11:15.841Z,101888.25
2022-08-11T13:13:54.949Z,101881.19
2022-08-11T13:16:52.473Z,101875.91
2022-08-11T13:19:21.148Z,101877.81
2022-08-11T13:21:49.705Z,101872.31
2022-08-11T13:24:18.504Z,101870.16
2022-08-11T13:26:49.658Z,101865.63
2022-08-11T13:29:20.013Z,101869.09
2022-08-11T13:31:47.716Z,101859.78
2022-08-11T13:34:16.748Z,101854.00
2022-08-11T13:36:44.792Z,101848.81
2022-08-11T13:39:13.385Z,101846.28
2022-08-11T13:41:42.033Z,101837.63
2022-08-11T13:44:12.431Z,101839.28
2022-08-11T13:46:44.300Z,101839.28
2022-08-11T13:49:11.710Z,101832.63
2022-08-11T13:51:40.154Z,101838.47
2022-08-11T13:54:09.236Z,101826.13
2022-08-11T13:56:41.237Z,101830.78
2022-08-11T13:59:09.371Z,101835.28
2022-08-11T14:02:20.482Z,101817.94
2022-08-11T14:04:45.294Z,101821.78
2022-08-11T14:07:14.783Z,101813.44
2022-08-11T14:09:44.787Z,101817.63
2022-08-11T14:12:42.984Z,101813.09
2022-08-11T14:15:33.394Z,101808.44
2022-08-11T14:18:05.253Z,101816.75
2022-08-11T14:20:52.934Z,101811.28
2022-08-11T14:23:26.740Z,101808.47
2022-08-11T14:26:14.258Z,101805.63
2022-08-11T14:28:45.144Z,101797.63
2022-08-11T14:31:16.525Z,101797.25
2022-08-11T14:34:00.820Z,101796.56
2022-08-11T14:36:35.521Z,101795.25
2022-08-11T14:39:13.164Z,101788.47
2022-08-11T14:42:10.035Z,101789.25
2022-08-11T14:45:01.629Z,101793.47
2022-08-11T14:47:32.212Z,101794.13
2022-08-11T14:50:11.392Z,101795.28
2022-08-11T14:52:51.635Z,101800.41
2022-08-11T14:55:38.905Z,101785.47
2022-08-11T14:58:08.677Z,101792.91
2022-08-11T15:00:36.508Z,101798.06
2022-08-11T15:03:11.677Z,101789.63
2022-08-11T15:05:41.689Z,101795.97
2022-08-11T15:08:41.601Z,101790.47
2022-08-11T15:11:30.727Z,101783.72
2022-08-11T15:13:59.939Z,101784.81
2022-08-11T15:16:46.123Z,101776.72
2022-08-11T15:19:13.919Z,101772.91
2022-08-11T15:21:59.388Z,101771.25
2022-08-11T15:24:27.993Z,101772.47
2022-08-11T15:27:19.201Z,101775.13
2022-08-11T15:30:07.079Z,101772.47
2022-08-11T15:32:53.802Z,101767.00
2022-08-11T15:35:39.933Z,101767.03
2022-08-11T15:38:11.650Z,101764.59
2022-08-11T15:40:59.865Z,101760.06
2022-08-11T15:43:51.451Z,101755.75
2022-08-11T15:46:23.029Z,101758.38
2022-08-11T15:48:59.333Z,101759.53
2022-08-11T15:51:45.285Z,101753.94
2022-08-11T15:54:18.659Z,101751.25
2022-08-11T15:56:48.858Z,101742.25
2022-08-11T15:59:42.921Z,101750.09
2022-08-11T16:02:33.671Z,101745.75
2022-08-11T16:05:05.996Z,101749.56
2022-08-11T16:07:38.433Z,101745.78
2022-08-11T16:10:21.474Z,101742.28
2022-08-11T16:13:06.506Z,101751.94
2022-08-11T16:15:55.577Z,101752.28
2022-08-11T16:18:40.511Z,101759.56
2022-08-11T16:21:34.053Z,101754.75
2022-08-11T16:24:06.011Z,101751.41
2022-08-11T16:27:07.905Z,101738.13
2022-08-11T16:29:25.477Z,101740.78
2022-08-11T16:32:14.468Z,101738.81
2022-08-11T16:35:02.270Z,101743.09
2022-08-11T16:37:49.477Z,101743.16
2022-08-11T16:40:17.830Z,101735.94
2022-08-11T16:43:10.108Z,101742.63
2022-08-11T16:45:56.596Z,101732.69
2022-08-11T16:48:35.061Z,101736.44
2022-08-11T16:51:05.148Z,101744.78
2022-08-11T16:54:03.416Z,101743.44
2022-08-11T16:56:21.982Z,101735.25
2022-08-11T16:59:12.767Z,101729.59
2022-08-11T17:01:40.698Z,101733.72
2022-08-11T17:04:32.525Z,101724.44
2022-08-11T17:07:23.910Z,101717.31
2022-08-11T17:10:38.183Z,101734.97
2022-08-11T17:13:15.763Z,101720.38
2022-08-11T17:16:06.973Z,101722.84
2022-08-11T17:18:41.722Z,101725.94
2022-08-11T17:21:18.595Z,101719.94
2022-08-11T17:23:51.914Z,101719.91
2022-08-11T17:26:57.680Z,101721.72
2022-08-11T17:29:54.524Z,101724.44
2022-08-11T17:32:57.276Z,101720.91
2022-08-11T17:35:34.681Z,101716.22
2022-08-11T17:38:03.943Z,101719.91
2022-08-11T17:40:32.722Z,101714.38
2022-08-11T17:43:19.646Z,101716.25
2022-08-11T17:46:05.170Z,101728.50
2022-08-11T17:48:47.891Z,101718.75
2022-08-11T17:51:38.360Z,101719.63
2022-08-11T17:54:25.593Z,101729.47
2022-08-11T17:57:20.088Z,101725.59
2022-08-11T17:59:53.110Z,101732.63
2022-08-11T18:02:44.118Z,101725.44
2022-08-11T18:05:13.755Z,101728.44
2022-08-11T18:08:01.745Z,101725.25
2022-08-11T18:10:50.400Z,101724.88
2022-08-11T18:13:40.187Z,101726.00
2022-08-11T18:16:27.091Z,101733.47
2022-08-11T18:19:12.130Z,101724.03
2022-08-11T18:22:15.457Z,101725.03
2022-08-11T18:25:13.013Z,101723.31
2022-08-11T18:28:03.241Z,101721.94
2022-08-11T18:30:53.908Z,101728.38
2022-08-11T18:34:07.072Z,101721.72
2022-08-11T18:36:57.399Z,101720.53
2022-08-11T18:39:54.655Z,101721.13
2022-08-11T18:42:45.156Z,101725.84
2022-08-11T18:45:45.321Z,101724.78
2022-08-11T18:48:35.792Z,101721.63
2022-08-11T18:51:30.982Z,101723.69
2022-08-11T18:54:29.172Z,101729.66
2022-08-11T18:57:18.411Z,101736.94
2022-08-11T19:00:05.681Z,101733.03
2022-08-11T19:02:55.879Z,101732.88
2022-08-11T19:06:32.026Z,101738.31
2022-08-11T19:08:55.838Z,101737.75
2022-08-11T19:11:43.633Z,101734.28
2022-08-11T19:14:31.224Z,101734.00
2022-08-11T19:17:44.746Z,101726.31
2022-08-11T19:20:29.270Z,101731.25
2022-08-11T19:23:15.853Z,101737.53
2022-08-11T19:26:03.770Z,101734.44
2022-08-11T19:28:52.140Z,101740.56
2022-08-11T19:31:43.871Z,101748.38
2022-08-11T19:34:34.779Z,101758.56
2022-08-11T19:37:24.818Z,101749.91
2022-08-11T19:40:13.350Z,101748.81
2022-08-11T19:43:01.840Z,101746.44
2022-08-11T19:45:52.692Z,101749.34
2022-08-11T19:48:40.826Z,101751.06
2022-08-11T19:51:27.480Z,101746.16
2022-08-11T19:54:13.701Z,101744.75
2022-08-11T19:57:00.955Z,101737.91
2022-08-11T19:59:47.228Z,101744.91
2022-08-11T20:02:32.491Z,101738.06
2022-08-11T20:05:17.976Z,101741.28
2022-08-11T20:08:05.546Z,101745.88
2022-08-11T20:10:53.013Z,101743.38
2022-08-11T20:13:42.562Z,101753.25
2022-08-11T20:16:31.014Z,101753.97
2022-08-11T20:19:17.788Z,101763.88
2022-08-11T20:22:08.229Z,101759.56
2022-08-11T20:24:56.673Z,101766.09
2022-08-11T20:27:43.341Z,101765.22
2022-08-11T20:30:28.928Z,101766.34
2022-08-11T20:33:14.717Z,101769.72
2022-08-11T20:36:00.242Z,101773.63
2022-08-11T20:38:49.898Z,101785.91
2022-08-11T20:41:58.118Z,101779.63
2022-08-11T20:44:46.544Z,101776.28
2022-08-11T20:47:56.231Z,101775.16
2022-08-11T20:50:41.633Z,101778.78
2022-08-11T20:53:32.181Z,101776.97
2022-08-11T20:56:28.563Z,101776.81
2022-08-11T20:59:18.977Z,101782.00
2022-08-11T21:02:11.273Z,101782.69
2022-08-11T21:05:00.356Z,101779.91
2022-08-11T21:07:57.072Z,101780.72
2022-08-11T21:14:00.324Z,101794.28
2022-08-11T21:16:51.486Z,101789.38
2022-08-11T21:20:06.643Z,101781.00
2022-08-11T21:23:05.884Z,101790.53
2022-08-11T21:26:01.217Z,101784.78
2022-08-11T21:28:48.356Z,101787.88
2022-08-11T21:31:34.196Z,101786.34
2022-08-11T21:34:21.874Z,101782.00
2022-08-11T21:37:08.826Z,101786.47
2022-08-11T21:39:55.744Z,101787.03
2022-08-11T21:42:41.627Z,101797.75
2022-08-11T21:45:28.972Z,101795.09
2022-08-11T21:48:15.798Z,101797.75
2022-08-11T21:51:01.154Z,101792.72
2022-08-11T21:53:46.862Z,101790.91
2022-08-11T21:56:33.169Z,101787.84
2022-08-11T21:59:20.438Z,101786.28
2022-08-11T22:02:12.437Z,101787.97
2022-08-11T22:04:58.554Z,101784.50
2022-08-11T22:07:43.946Z,101781.69
2022-08-11T22:10:40.957Z,101787.00
2022-08-11T22:13:30.405Z,101788.13
2022-08-11T22:16:16.523Z,101787.41
2022-08-11T22:19:02.842Z,101786.88
2022-08-11T22:22:01.697Z,101786.72
2022-08-11T22:24:51.766Z,101787.41
2022-08-11T22:27:37.932Z,101790.63
2022-08-11T22:30:28.574Z,101796.19
2022-08-11T22:33:16.334Z,101796.34
2022-08-11T22:36:04.156Z,101800.50
2022-08-11T22:38:51.817Z,101788.50
2022-08-11T22:41:37.638Z,101787.25
2022-08-11T22:44:23.536Z,101790.59
2022-08-11T22:47:10.687Z,101791.44
2022-08-11T22:50:00.837Z,101802.16
2022-08-11T22:52:49.955Z,101801.59
2022-08-11T22:55:37.778Z,101798.81
2022-08-11T22:58:24.364Z,101801.16
2022-08-11T23:01:10.209Z,101796.00
2022-08-11T23:03:56.426Z,101794.59
2022-08-11T23:06:41.908Z,101796.28
2022-08-11T23:09:28.065Z,101800.03
2022-08-11T23:12:13.857Z,101799.19
2022-08-11T23:14:59.615Z,101794.16
2022-08-11T23:17:45.863Z,101800.56
2022-08-11T23:20:35.453Z,101803.28
2022-08-11T23:23:28.680Z,101801.81
2022-08-11T23:26:14.795Z,101798.56
2022-08-11T23:29:01.922Z,101798.69
2022-08-11T23:31:52.630Z,101794.81
2022-08-11T23:35:04.775Z,101796.91
2022-08-11T23:37:46.527Z,101795.09
2022-08-11T23:40:31.704Z,101791.59
2022-08-11T23:43:16.915Z,101790.78
2022-08-11T23:46:02.151Z,101791.19
2022-08-11T23:48:49.162Z,101793.50
2022-08-11T23:51:41.252Z,101792.22
2022-08-11T23:54:31.616Z,101791.38
2022-08-11T23:57:22.246Z,101795.13
